Girard, Texas
Current Conditions -  °F | °C
As of 11:35 PM on Monday 26 Jan 2015 (Local Time) from KSWW Reporting Station
Clear Clear  
Wind Chill: 52°   Ceiling: Unl
Heat Index: 52°   Visibility: 10mi
Dew Point: 35°   Wind: 12mph
Humidity: 51%   Direction: 230°SW
Pressure: 30.23"   Gusts: NA
Location:  33.36°N, 100.66°W
Report Text: KSWW 270535Z AUTO 23010KT 10SM CLR 11/02 A3023 RMK AO2 T01120015
Loading
Personal Weather Stations






























Interactive Weather Map New forecast layout! Learn more

10-Day Weather Forecast

Advertisements
Track Severe Weather on mobile